Time;durP1;ratioP1;P1;durP2;ratioP2;P2;SDS_P1;SDS_P2;PMS_P1;PMS_P2;Temp;Humidity;BMP_temperature;BMP_pressure;BME280_temperature;BME280_humidity;BME280_pressure;Samples;Min_cycle;Max_cycle;Signal;HPM_P1;HPM_P2
2023/03/12 00:02:11;;;;;;;0.10;0.10;;;-2.00;99.90;;;;;;5057511;28;20064;-82
2023/03/12 00:04:36;;;;;;;0.10;0.10;;;-2.00;99.90;;;;;;5056417;28;20099;-82
2023/03/12 00:07:05;;;;;;;0.20;0.20;;;-2.00;99.90;;;;;;5057014;28;20190;-81
2023/03/12 00:09:34;;;;;;;0.05;0.05;;;-2.00;99.90;;;;;;5056856;28;20056;-82
2023/03/12 00:12:00;;;;;;;0.00;0.00;;;-2.00;99.90;;;;;;5056675;28;20056;-83
2023/03/12 00:14:26;;;;;;;0.00;0.00;;;-2.10;99.90;;;;;;5056838;28;20049;-83
2023/03/12 00:16:51;;;;;;;0.00;0.00;;;-2.10;99.90;;;;;;5056648;28;20796;-83
2023/03/12 00:19:17;;;;;;;0.00;0.00;;;-2.20;99.90;;;;;;5056769;28;20060;-82
2023/03/12 00:21:42;;;;;;;0.00;0.00;;;-2.20;99.90;;;;;;5057130;28;20037;-83
2023/03/12 00:24:08;;;;;;;0.00;0.00;;;-2.20;99.90;;;;;;5055777;28;20111;-84
2023/03/12 00:26:34;;;;;;;0.10;0.10;;;-2.20;99.90;;;;;;5057230;28;20068;-83
2023/03/12 00:28:59;;;;;;;0.10;0.10;;;-2.20;99.90;;;;;;5056745;28;20220;-83
2023/03/12 00:31:28;;;;;;;0.75;0.75;;;-2.30;99.90;;;;;;5057370;28;20053;-83
2023/03/12 00:33:55;;;;;;;0.30;0.25;;;-2.30;99.90;;;;;;5057314;28;20064;-82
2023/03/12 00:36:27;;;;;;;0.05;0.05;;;-2.30;99.90;;;;;;5057150;28;20056;-83
2023/03/12 00:38:54;;;;;;;0.00;0.00;;;-2.30;99.90;;;;;;5055571;28;20584;-83
2023/03/12 00:41:20;;;;;;;1.98;1.75;;;-2.30;99.90;;;;;;5056694;28;20434;-82
2023/03/12 00:43:47;;;;;;;0.47;0.30;;;-2.30;99.90;;;;;;5055276;28;20497;-82
2023/03/12 00:46:13;;;;;;;0.10;0.10;;;-2.30;99.90;;;;;;5055360;28;20510;-82
2023/03/12 00:48:39;;;;;;;0.20;0.20;;;-2.30;99.90;;;;;;5055525;28;20083;-83
2023/03/12 00:51:05;;;;;;;0.15;0.15;;;-2.30;99.90;;;;;;5057623;28;20071;-82
2023/03/12 00:53:31;;;;;;;0.08;0.08;;;-2.40;99.90;;;;;;5060891;28;20041;-82
2023/03/12 00:55:56;;;;;;;0.20;0.20;;;-2.40;99.90;;;;;;5058862;28;20041;-82
2023/03/12 00:58:22;;;;;;;0.20;0.20;;;-2.40;99.90;;;;;;5059753;28;20398;-82
2023/03/12 01:00:47;;;;;;;0.10;0.10;;;-2.40;99.90;;;;;;5059829;28;20105;-82
2023/03/12 01:03:13;;;;;;;0.00;0.00;;;-2.40;99.90;;;;;;5059625;28;20049;-82
2023/03/12 01:05:39;;;;;;;0.08;0.08;;;-2.40;99.90;;;;;;5059589;28;20053;-82
2023/03/12 01:08:06;;;;;;;0.20;0.20;;;-2.50;99.90;;;;;;5058956;28;20041;-82
2023/03/12 01:10:32;;;;;;;0.10;0.10;;;-2.40;99.90;;;;;;5058101;28;20922;-82
2023/03/12 01:12:58;;;;;;;0.10;0.10;;;-2.40;99.90;;;;;;5061240;28;20045;-82
2023/03/12 01:15:24;;;;;;;0.00;0.00;;;-2.50;99.90;;;;;;5060458;28;20045;-82
2023/03/12 01:17:50;;;;;;;0.38;0.38;;;-2.50;99.90;;;;;;5061586;28;20080;-82
2023/03/12 01:20:16;;;;;;;0.15;0.15;;;-2.40;99.90;;;;;;5060606;28;20056;-82
2023/03/12 01:22:42;;;;;;;0.05;0.05;;;-2.40;99.90;;;;;;5066354;28;20049;-81
2023/03/12 01:25:09;;;;;;;1.27;1.17;;;-2.40;99.90;;;;;;5070934;28;20071;-82
2023/03/12 01:27:35;;;;;;;0.10;0.10;;;-2.40;99.90;;;;;;5068341;28;20040;-82
2023/03/12 01:30:01;;;;;;;0.03;0.03;;;-2.40;99.90;;;;;;5071309;28;20055;-82
2023/03/12 01:32:26;;;;;;;0.63;0.63;;;-2.30;99.90;;;;;;5070908;28;20056;-81
2023/03/12 01:34:52;;;;;;;0.35;0.35;;;-2.30;99.90;;;;;;5062760;28;20040;-82
2023/03/12 01:37:18;;;;;;;1.38;1.27;;;-2.00;99.90;;;;;;5060468;28;20049;-83
2023/03/12 01:39:43;;;;;;;0.10;0.10;;;-2.30;99.90;;;;;;5060380;28;20478;-83
2023/03/12 01:42:09;;;;;;;0.00;0.00;;;-2.30;99.90;;;;;;5059421;28;20128;-82
2023/03/12 01:44:57;;;;;;;0.52;0.32;;;-2.30;99.90;;;;;;5060342;28;20053;-82
2023/03/12 01:47:23;;;;;;;0.13;0.13;;;-2.30;99.90;;;;;;5059784;28;20111;-82
2023/03/12 01:49:51;;;;;;;0.00;0.00;;;-2.20;99.90;;;;;;5059877;28;20116;-82
2023/03/12 01:52:25;;;;;;;1.00;0.90;;;-2.20;99.90;;;;;;5059514;28;20056;-82
2023/03/12 01:55:04;;;;;;;1.55;1.45;;;-2.10;99.90;;;;;;5059729;28;20056;-81
2023/03/12 01:57:36;;;;;;;0.00;0.00;;;-2.00;99.90;;;;;;5060341;28;20048;-82
2023/03/12 02:00:08;;;;;;;0.25;0.25;;;-1.90;99.90;;;;;;5060001;28;20489;-82
2023/03/12 02:02:35;;;;;;;0.10;0.10;;;-1.80;99.90;;;;;;5059295;28;20045;-82
2023/03/12 02:05:13;;;;;;;0.45;0.45;;;-1.70;99.90;;;;;;5060785;28;20049;-83
2023/03/12 02:07:39;;;;;;;0.10;0.10;;;-1.50;99.90;;;;;;5059858;28;20057;-82
2023/03/12 02:10:05;;;;;;;0.20;0.20;;;-1.40;99.90;;;;;;5059767;28;20041;-82
2023/03/12 02:12:30;;;;;;;0.10;0.10;;;-1.40;99.90;;;;;;5059861;28;20082;-82
2023/03/12 02:14:56;;;;;;;0.15;0.15;;;-1.30;99.90;;;;;;5060187;28;20096;-83
2023/03/12 02:17:22;;;;;;;1.10;0.73;;;-1.30;99.90;;;;;;5059427;28;20145;-81
2023/03/12 02:20:15;;;;;;;0.10;0.10;;;-1.20;99.90;;;;;;5059026;28;20039;-82
2023/03/12 02:22:46;;;;;;;0.10;0.10;;;-1.10;99.90;;;;;;5059068;28;20053;-83
2023/03/12 02:25:39;;;;;;;0.10;0.10;;;-1.10;99.90;;;;;;5059227;28;20161;-82
2023/03/12 02:28:12;;;;;;;0.00;0.00;;;-1.00;99.90;;;;;;5091435;28;20057;-82
2023/03/12 02:30:41;;;;;;;0.32;0.30;;;-1.00;99.90;;;;;;5058748;28;20053;-82
2023/03/12 02:33:08;;;;;;;0.28;0.28;;;-1.00;99.90;;;;;;5057926;28;20076;-82
2023/03/12 02:35:35;;;;;;;0.17;0.17;;;-1.00;99.90;;;;;;5038714;28;20056;-82
2023/03/12 02:38:01;;;;;;;0.17;0.17;;;-1.00;99.90;;;;;;5038722;28;20053;-83
2023/03/12 02:40:39;;;;;;;0.00;0.00;;;-1.00;99.90;;;;;;5038802;28;20050;-82
2023/03/12 02:43:07;;;;;;;0.00;0.00;;;-1.00;99.90;;;;;;5038241;28;20045;-82
2023/03/12 02:45:34;;;;;;;0.03;0.03;;;-1.00;99.90;;;;;;5037851;28;20041;-82
2023/03/12 02:48:02;;;;;;;0.00;0.00;;;-0.90;99.90;;;;;;5038049;28;20153;-82
2023/03/12 02:50:27;;;;;;;0.10;0.10;;;-0.70;99.90;;;;;;5036696;28;20130;-82
2023/03/12 02:52:53;;;;;;;0.10;0.10;;;-0.70;99.90;;;;;;5048514;28;20068;-82
2023/03/12 02:55:19;;;;;;;1.95;0.80;;;-0.60;99.90;;;;;;5056493;28;20041;-82
2023/03/12 02:57:44;;;;;;;0.10;0.10;;;-0.50;99.90;;;;;;5057025;28;20800;-82
2023/03/12 03:00:14;;;;;;;0.10;0.10;;;-0.50;99.90;;;;;;5055661;28;20049;-82
2023/03/12 03:02:40;;;;;;;0.10;0.10;;;-0.50;99.90;;;;;;5056328;28;20052;-83
2023/03/12 03:05:07;;;;;;;0.10;0.10;;;-0.50;99.90;;;;;;5057768;28;20240;-82
2023/03/12 03:07:33;;;;;;;0.10;0.10;;;-0.50;99.90;;;;;;5056871;28;20044;-82
2023/03/12 03:10:08;;;;;;;0.00;0.00;;;-0.40;99.90;;;;;;5055625;28;20048;-83
2023/03/12 03:13:15;;;;;;;0.00;0.00;;;-0.80;99.90;;;;;;5048520;28;20052;-83
2023/03/12 03:16:29;;;;;;;0.10;0.10;;;-0.60;99.90;;;;;;4967127;28;20425;-82
2023/03/12 03:20:09;;;;;;;0.00;0.00;;;-0.40;99.90;;;;;;4966815;28;20524;-83
2023/03/12 03:23:29;;;;;;;0.20;0.20;;;-0.40;99.90;;;;;;4948746;28;20122;-83
2023/03/12 03:26:19;;;;;;;0.00;0.00;;;-0.90;99.90;;;;;;4948453;28;20054;-83
2023/03/12 03:28:57;;;;;;;0.73;0.73;;;-0.50;99.90;;;;;;5060797;28;20087;-83
2023/03/12 03:31:34;;;;;;;0.00;0.00;;;-0.50;99.90;;;;;;5035828;28;20041;-83
2023/03/12 03:34:31;;;;;;;0.22;0.22;;;-0.50;99.90;;;;;;5048946;28;20045;-83
2023/03/12 03:38:07;;;;;;;;;;;-0.40;99.90;;;;;;5048305;28;20052;-83
2023/03/12 03:41:23;;;;;;;;;;;;;;;;;;;;;
2023/03/12 03:45:32;;;;;;;;;;;;;;;;;;;;;
2023/03/12 03:48:23;;;;;;;0.10;0.10;;;-0.30;99.90;;;;;;5043413;28;20072;-82
2023/03/12 03:50:50;;;;;;;1.25;0.90;;;-0.30;99.90;;;;;;5056605;28;20061;-81
2023/03/12 03:53:18;;;;;;;0.35;0.35;;;-0.20;99.90;;;;;;5056355;28;20487;-80
2023/03/12 03:55:44;;;;;;;0.00;0.00;;;-0.20;99.90;;;;;;5057855;28;20045;-81
2023/03/12 03:58:10;;;;;;;0.10;0.10;;;-0.20;99.90;;;;;;5058267;28;20056;-81
2023/03/12 04:00:37;;;;;;;1.95;1.30;;;-0.20;99.90;;;;;;5057755;28;20045;-81
2023/03/12 04:03:03;;;;;;;0.20;0.20;;;-0.10;99.90;;;;;;5056210;28;20053;-81
2023/03/12 04:05:28;;;;;;;0.65;0.65;;;0.00;99.90;;;;;;5057611;28;20052;-81
2023/03/12 04:07:55;;;;;;;0.00;0.00;;;0.10;1.00;;;;;;5057896;28;20118;-81
2023/03/12 04:10:23;;;;;;;0.63;0.63;;;0.10;1.00;;;;;;5057780;28;20056;-83
2023/03/12 04:12:49;;;;;;;0.00;0.00;;;0.10;99.90;;;;;;5057517;28;20363;-81
2023/03/12 04:15:15;;;;;;;0.43;0.43;;;0.10;99.90;;;;;;5056972;28;20048;-81
2023/03/12 04:17:40;;;;;;;0.95;0.73;;;0.20;1.00;;;;;;5055816;28;20056;-81
2023/03/12 04:20:08;;;;;;;0.10;0.10;;;0.20;99.90;;;;;;5055846;28;20056;-81
2023/03/12 04:22:34;;;;;;;0.00;0.00;;;0.30;1.00;;;;;;5055775;28;20040;-81
2023/03/12 04:25:00;;;;;;;0.00;0.00;;;0.30;99.90;;;;;;5055976;28;20071;-81
2023/03/12 04:27:25;;;;;;;0.08;0.08;;;0.30;99.90;;;;;;5060135;28;20114;-80
2023/03/12 04:29:51;;;;;;;0.00;0.00;;;0.30;99.90;;;;;;5059044;28;20045;-81
2023/03/12 04:32:17;;;;;;;0.10;0.10;;;0.40;1.00;;;;;;5060514;28;20053;-81
2023/03/12 04:34:42;;;;;;;0.00;0.00;;;0.40;99.90;;;;;;5060171;28;20188;-81
2023/03/12 04:37:17;;;;;;;0.05;0.05;;;0.40;99.90;;;;;;5060574;28;20078;-81
2023/03/12 04:39:44;;;;;;;0.05;0.05;;;0.50;99.90;;;;;;5060856;28;20135;-82
2023/03/12 04:42:10;;;;;;;0.63;0.63;;;0.50;99.90;;;;;;5059757;28;20044;-81
2023/03/12 04:44:36;;;;;;;0.00;0.00;;;0.50;99.90;;;;;;5060376;28;20152;-81
2023/03/12 04:47:03;;;;;;;0.08;0.08;;;0.50;99.90;;;;;;5059597;28;20049;-81
2023/03/12 04:49:29;;;;;;;0.00;0.00;;;0.60;99.40;;;;;;5060002;28;20057;-81
2023/03/12 04:51:54;;;;;;;0.38;0.38;;;0.60;83.20;;;;;;5060670;28;20045;-81
2023/03/12 04:54:21;;;;;;;0.00;0.00;;;0.60;92.10;;;;;;5060673;28;20064;-81
2023/03/12 04:56:48;;;;;;;1.35;0.57;;;0.60;1.00;;;;;;5060848;28;20053;-81
2023/03/12 04:59:13;;;;;;;0.00;0.00;;;0.60;92.80;;;;;;5060772;28;20033;-81
2023/03/12 05:01:39;;;;;;;0.10;0.10;;;0.60;40.40;;;;;;5059328;28;20045;-81
2023/03/12 05:04:05;;;;;;;0.10;0.10;;;0.70;44.10;;;;;;5059992;28;20045;-81
2023/03/12 05:06:31;;;;;;;0.00;0.00;;;0.80;99.90;;;;;;5060405;28;20418;-82
2023/03/12 05:08:57;;;;;;;0.10;0.10;;;0.90;99.90;;;;;;5061278;28;20070;-81
2023/03/12 05:11:23;;;;;;;1.27;0.95;;;0.90;99.90;;;;;;5060685;28;20484;-81
2023/03/12 05:13:48;;;;;;;0.10;0.10;;;0.90;99.90;;;;;;5060687;28;20057;-81
2023/03/12 05:16:15;;;;;;;0.00;0.00;;;0.90;99.90;;;;;;5061300;28;20057;-81
2023/03/12 05:18:42;;;;;;;0.22;0.22;;;0.90;99.90;;;;;;5062558;28;20056;-80
2023/03/12 05:21:12;;;;;;;0.45;0.45;;;0.90;99.90;;;;;;5061408;28;20063;-81
2023/03/12 05:23:38;;;;;;;0.63;0.63;;;0.90;99.90;;;;;;5060401;28;20503;-81
2023/03/12 05:26:17;;;;;;;0.00;0.00;;;0.90;1.00;;;;;;5060724;28;20040;-81
2023/03/12 05:28:42;;;;;;;0.00;0.00;;;0.90;99.90;;;;;;5061722;28;20060;-82
2023/03/12 05:31:10;;;;;;;4.85;0.80;;;0.90;99.90;;;;;;5062178;28;20041;-82
2023/03/12 05:33:36;;;;;;;0.75;0.75;;;1.10;99.90;;;;;;5061809;28;20045;-81
2023/03/12 05:36:02;;;;;;;0.00;0.00;;;1.10;99.90;;;;;;5062093;28;20108;-80
2023/03/12 05:38:27;;;;;;;0.10;0.10;;;1.20;99.90;;;;;;5060373;28;20040;-80
2023/03/12 05:40:55;;;;;;;0.00;0.00;;;1.20;99.90;;;;;;5062483;28;20080;-81
2023/03/12 05:43:21;;;;;;;0.32;0.32;;;1.20;99.90;;;;;;5059577;28;20044;-81
2023/03/12 05:45:48;;;;;;;0.13;0.13;;;1.30;99.90;;;;;;5059654;28;20056;-81
2023/03/12 05:48:13;;;;;;;0.00;0.00;;;1.40;39.20;;;;;;5059350;28;20053;-81
2023/03/12 05:50:39;;;;;;;1.00;0.95;;;1.30;99.90;;;;;;5057984;28;20060;-82
2023/03/12 05:53:05;;;;;;;0.00;0.00;;;1.40;99.90;;;;;;5058037;28;20079;-81
2023/03/12 05:55:34;;;;;;;0.20;0.20;;;2.00;99.90;;;;;;5058118;28;20041;-81
2023/03/12 05:58:00;;;;;;;0.05;0.05;;;1.50;1.00;;;;;;5057584;28;20120;-81
2023/03/12 06:00:26;;;;;;;0.10;0.10;;;1.50;64.60;;;;;;5057542;28;20056;-82
2023/03/12 06:02:52;;;;;;;0.03;0.03;;;1.50;1.00;;;;;;5058001;28;20041;-82
2023/03/12 06:05:18;;;;;;;0.00;0.00;;;1.50;6.10;;;;;;5060521;28;20095;-81
2023/03/12 06:07:43;;;;;;;0.55;0.55;;;1.50;14.60;;;;;;5063993;28;20393;-83
2023/03/12 06:10:10;;;;;;;2.17;0.80;;;1.50;8.60;;;;;;5062473;28;20041;-81
2023/03/12 06:12:36;;;;;;;0.30;0.30;;;1.50;27.40;;;;;;5064742;28;20055;-81
2023/03/12 06:15:02;;;;;;;0.10;0.10;;;1.60;1.00;;;;;;5060161;28;20041;-82
2023/03/12 06:17:31;;;;;;;1.75;1.13;;;1.60;35.20;;;;;;5058468;28;20094;-82
2023/03/12 06:19:57;;;;;;;0.20;0.20;;;1.70;1.00;;;;;;5057359;28;20127;-81
2023/03/12 06:22:23;;;;;;;0.50;0.50;;;1.60;1.00;;;;;;5056933;28;20111;-82
2023/03/12 06:24:48;;;;;;;0.35;0.35;;;1.60;1.00;;;;;;5058115;28;20049;-81
2023/03/12 06:27:15;;;;;;;0.10;0.10;;;1.60;99.90;;;;;;5058243;28;20528;-81
2023/03/12 06:29:41;;;;;;;0.10;0.10;;;1.60;45.30;;;;;;5056528;28;20041;-82
2023/03/12 06:32:07;;;;;;;0.10;0.10;;;1.70;1.00;;;;;;5057233;28;20056;-82
2023/03/12 06:34:33;;;;;;;0.00;0.00;;;1.80;1.00;;;;;;5056614;28;20069;-81
2023/03/12 06:36:59;;;;;;;0.65;0.35;;;1.90;1.00;;;;;;5055870;28;20064;-82
2023/03/12 06:39:25;;;;;;;0.00;0.00;;;1.80;1.00;;;;;;5048593;28;20085;-82
2023/03/12 06:41:50;;;;;;;3.38;1.75;;;1.80;1.00;;;;;;5050263;28;20041;-82
2023/03/12 06:44:16;;;;;;;0.63;0.55;;;1.80;1.00;;;;;;5045103;28;20072;-82
2023/03/12 06:46:43;;;;;;;1.10;0.95;;;1.80;1.00;;;;;;5050635;28;20040;-82
2023/03/12 06:49:10;;;;;;;0.35;0.35;;;1.80;1.00;;;;;;5041914;28;20041;-82
2023/03/12 06:51:35;;;;;;;0.00;0.00;;;1.90;1.00;;;;;;5042197;28;20048;-82
2023/03/12 06:54:01;;;;;;;0.40;0.40;;;1.90;1.00;;;;;;5039351;28;20048;-82
2023/03/12 06:56:28;;;;;;;0.22;0.22;;;1.90;1.00;;;;;;5051816;28;20410;-82
2023/03/12 06:58:55;;;;;;;0.55;0.55;;;2.00;1.00;;;;;;5049801;28;20045;-82
2023/03/12 07:01:21;;;;;;;0.50;0.50;;;1.90;99.90;;;;;;5046987;28;20071;-82
2023/03/12 07:03:47;;;;;;;0.35;0.35;;;1.90;1.00;;;;;;5046245;28;20529;-82
2023/03/12 07:06:20;;;;;;;0.25;0.25;;;1.90;1.00;;;;;;5049099;28;20040;-82
2023/03/12 07:08:46;;;;;;;0.22;0.22;;;2.00;99.90;;;;;;5038202;28;20048;-82
2023/03/12 07:11:12;;;;;;;0.40;0.40;;;2.10;99.90;;;;;;5038358;28;20057;-82
2023/03/12 07:13:39;;;;;;;0.13;0.13;;;2.10;99.90;;;;;;5042981;28;20511;-82
2023/03/12 07:16:05;;;;;;;0.47;0.47;;;2.20;99.90;;;;;;5043462;28;20052;-82
2023/03/12 07:18:31;;;;;;;0.10;0.10;;;2.20;99.90;;;;;;5049211;28;20076;-82
2023/03/12 07:20:57;;;;;;;1.15;0.98;;;2.10;99.90;;;;;;5041688;28;20508;-82
2023/03/12 07:23:23;;;;;;;0.10;0.10;;;2.00;1.00;;;;;;5077269;28;20045;-82
2023/03/12 07:25:49;;;;;;;0.00;0.00;;;2.00;1.00;;;;;;5037844;28;20122;-82
2023/03/12 07:28:16;;;;;;;0.55;0.55;;;2.00;1.00;;;;;;5037421;28;20041;-82
2023/03/12 07:30:48;;;;;;;3.95;1.52;;;2.00;1.00;;;;;;5033054;28;20091;-82
2023/03/12 07:33:15;;;;;;;0.20;0.20;;;2.00;42.50;;;;;;5046705;28;20542;-82
2023/03/12 07:35:40;;;;;;;0.22;0.22;;;2.10;99.90;;;;;;5048615;28;20072;-82
2023/03/12 07:38:07;;;;;;;0.10;0.10;;;2.00;99.90;;;;;;5048824;28;20044;-82
2023/03/12 07:40:33;;;;;;;0.10;0.10;;;1.90;99.90;;;;;;5047562;28;20445;-82
2023/03/12 07:42:59;;;;;;;0.32;0.32;;;1.80;1.00;;;;;;5045094;28;20513;-82
2023/03/12 07:45:25;;;;;;;0.45;0.45;;;1.80;99.90;;;;;;5040499;28;20053;-83
2023/03/12 07:47:51;;;;;;;0.30;0.30;;;1.80;99.90;;;;;;5044250;28;20048;-82
2023/03/12 07:50:17;;;;;;;0.47;0.38;;;1.70;1.00;;;;;;5073898;28;20072;-83
2023/03/12 07:52:43;;;;;;;0.10;0.10;;;1.60;99.90;;;;;;5038374;28;20045;-83
2023/03/12 07:55:09;;;;;;;0.10;0.10;;;1.60;1.00;;;;;;5048102;28;20048;-83
2023/03/12 07:57:36;;;;;;;0.20;0.20;;;1.60;96.40;;;;;;5035718;28;20041;-84
2023/03/12 08:00:06;;;;;;;0.40;0.40;;;1.60;99.90;;;;;;5044839;28;20107;-83
2023/03/12 08:02:33;;;;;;;0.10;0.10;;;1.60;99.90;;;;;;5042647;28;20038;-83
2023/03/12 08:04:58;;;;;;;0.20;0.20;;;1.50;99.90;;;;;;5036314;28;20076;-84
2023/03/12 08:07:24;;;;;;;0.20;0.20;;;1.50;1.00;;;;;;5045139;28;20080;-84
2023/03/12 08:09:50;;;;;;;0.22;0.22;;;1.40;52.90;;;;;;5046561;28;20530;-84
2023/03/12 08:12:16;;;;;;;0.00;0.00;;;1.40;1.00;;;;;;5069382;28;20163;-84
2023/03/12 08:14:41;;;;;;;0.00;0.00;;;1.30;1.00;;;;;;5070911;28;20499;-84
2023/03/12 08:17:07;;;;;;;0.30;0.30;;;1.30;1.00;;;;;;5045820;28;20596;-83
2023/03/12 08:19:33;;;;;;;0.40;0.40;;;1.30;99.90;;;;;;5066329;28;20414;-84
2023/03/12 08:21:58;;;;;;;0.47;0.47;;;1.40;1.00;;;;;;5036042;28;20052;-83
2023/03/12 08:24:24;;;;;;;1.05;0.68;;;1.30;99.90;;;;;;5040002;28;20125;-84
2023/03/12 08:26:50;;;;;;;0.30;0.30;;;1.30;99.90;;;;;;5045792;28;20495;-84
2023/03/12 08:29:16;;;;;;;0.98;0.98;;;1.20;99.90;;;;;;5080575;28;20095;-83
2023/03/12 08:31:42;;;;;;;0.10;0.10;;;1.20;99.90;;;;;;5074562;28;20120;-84
2023/03/12 08:34:08;;;;;;;0.10;0.10;;;1.20;99.90;;;;;;5069818;28;20102;-84
2023/03/12 08:36:36;;;;;;;0.00;0.00;;;1.40;99.90;;;;;;5035202;28;20478;-84
2023/03/12 08:39:03;;;;;;;1.25;1.15;;;1.30;99.90;;;;;;5039359;28;20049;-85
2023/03/12 08:41:29;;;;;;;0.40;0.40;;;1.40;99.90;;;;;;5042719;28;20053;-85
2023/03/12 08:43:55;;;;;;;0.32;0.32;;;1.60;99.90;;;;;;5030127;28;20498;-85
2023/03/12 08:46:20;;;;;;;0.10;0.10;;;1.70;99.90;;;;;;5035230;28;20075;-85
2023/03/12 08:48:46;;;;;;;0.00;0.00;;;1.70;99.90;;;;;;5031703;28;20293;-85
2023/03/12 08:51:12;;;;;;;5.18;1.27;;;1.80;99.90;;;;;;5028872;28;20046;-84
2023/03/12 08:53:38;;;;;;;0.52;0.52;;;1.90;99.90;;;;;;5030532;28;20052;-84
2023/03/12 08:56:04;;;;;;;0.00;0.00;;;1.70;99.90;;;;;;5063888;28;20178;-83
2023/03/12 08:58:30;;;;;;;0.45;0.38;;;1.90;99.90;;;;;;5032506;28;20038;-84
2023/03/12 09:00:56;;;;;;;0.35;0.20;;;2.10;99.90;;;;;;5036270;28;20044;-85
2023/03/12 09:03:22;;;;;;;0.00;0.00;;;2.10;99.90;;;;;;5063747;28;20494;-86
2023/03/12 09:05:48;;;;;;;1.88;1.15;;;2.20;99.90;;;;;;5034523;28;20045;-86
2023/03/12 09:08:14;;;;;;;0.28;0.28;;;2.20;99.90;;;;;;5029430;28;20056;-86
2023/03/12 09:10:46;;;;;;;0.63;0.63;;;2.20;99.90;;;;;;5035480;28;20037;-86
2023/03/12 09:13:11;;;;;;;0.40;0.40;;;2.10;99.90;;;;;;5071134;28;20053;-87
2023/03/12 09:15:37;;;;;;;0.00;0.00;;;2.40;99.90;;;;;;5036111;28;20055;-87
2023/03/12 09:18:03;;;;;;;0.43;0.43;;;2.50;99.90;;;;;;5036835;28;20041;-87
2023/03/12 09:20:29;;;;;;;0.30;0.30;;;2.30;99.90;;;;;;5070710;28;20131;-87
2023/03/12 09:22:54;;;;;;;0.05;0.05;;;2.50;99.90;;;;;;5025958;28;20128;-87
2023/03/12 09:25:22;;;;;;;0.13;0.13;;;2.40;99.90;;;;;;5044766;28;20032;-87
2023/03/12 09:27:48;;;;;;;0.00;0.00;;;2.40;99.90;;;;;;5069450;28;20053;-87
2023/03/12 09:30:19;;;;;;;1.00;0.85;;;2.40;99.90;;;;;;5069378;28;20510;-86
2023/03/12 09:32:46;;;;;;;0.10;0.10;;;2.20;99.90;;;;;;5043515;28;20045;-86
2023/03/12 09:35:14;;;;;;;0.00;0.00;;;2.20;99.90;;;;;;5044373;28;20694;-87
2023/03/12 09:37:40;;;;;;;2.90;0.98;;;2.20;99.90;;;;;;5035138;28;20466;-87
2023/03/12 09:40:07;;;;;;;0.20;0.20;;;2.30;99.90;;;;;;5042869;28;20128;-86
2023/03/12 09:42:49;;;;;;;0.15;0.15;;;2.20;99.90;;;;;;5031520;28;20046;-86
2023/03/12 09:45:22;;;;;;;0.30;0.30;;;2.20;99.90;;;;;;5041379;28;20506;-86
2023/03/12 09:47:54;;;;;;;1.33;0.77;;;2.30;99.90;;;;;;5034549;28;20100;-86
2023/03/12 09:50:42;;;;;;;0.28;0.28;;;2.40;99.90;;;;;;5041419;28;20459;-85
2023/03/12 09:53:29;;;;;;;0.65;0.40;;;2.80;99.90;;;;;;5039398;28;20092;-85
2023/03/12 09:55:57;;;;;;;0.38;0.38;;;2.40;99.90;;;;;;5041389;28;20047;-84
2023/03/12 09:58:25;;;;;;;0.00;0.00;;;2.30;99.90;;;;;;5042563;28;20049;-84
2023/03/12 10:01:06;;;;;;;0.20;0.20;;;2.30;99.90;;;;;;5040656;28;20053;-84
2023/03/12 10:03:46;;;;;;;0.03;0.03;;;2.30;99.90;;;;;;5068306;28;20487;-84
2023/03/12 10:06:18;;;;;;;0.50;0.50;;;2.20;99.90;;;;;;5028958;28;20559;-84
2023/03/12 10:08:56;;;;;;;0.05;0.05;;;2.30;99.90;;;;;;5069209;28;20486;-84
2023/03/12 10:12:13;;;;;;;0.00;0.00;;;2.10;99.90;;;;;;5041272;28;20125;-85
2023/03/12 10:14:47;;;;;;;0.10;0.10;;;2.20;99.90;;;;;;5003597;28;20112;-85
2023/03/12 10:17:35;;;;;;;0.10;0.10;;;2.30;99.90;;;;;;5002730;28;20088;-84
2023/03/12 10:20:01;;;;;;;0.43;0.40;;;2.40;99.90;;;;;;5035975;28;20435;-85
2023/03/12 10:22:45;;;;;;;0.30;0.30;;;2.30;99.90;;;;;;5040489;28;20059;-85
2023/03/12 10:25:30;;;;;;;0.10;0.10;;;2.30;99.90;;;;;;5040468;28;20056;-85
2023/03/12 10:28:10;;;;;;;1.08;0.65;;;2.40;99.90;;;;;;5042440;28;20044;-85
2023/03/12 10:30:41;;;;;;;0.10;0.10;;;2.40;99.90;;;;;;5038970;28;20064;-85
2023/03/12 10:33:12;;;;;;;0.30;0.30;;;2.40;99.90;;;;;;5035760;28;20087;-85
2023/03/12 10:35:39;;;;;;;0.68;0.68;;;2.40;99.90;;;;;;5044558;28;20052;-85
2023/03/12 10:38:25;;;;;;;0.73;0.45;;;2.40;99.90;;;;;;5040732;28;20091;-85
2023/03/12 10:40:51;;;;;;;12.35;3.80;;;2.30;99.90;;;;;;5041145;28;20041;-85
2023/03/12 10:43:16;;;;;;;0.70;0.70;;;2.40;99.90;;;;;;5039467;28;20045;-84
2023/03/12 10:46:17;;;;;;;0.20;0.20;;;2.50;99.90;;;;;;5040118;28;20615;-85
2023/03/12 10:48:43;;;;;;;0.10;0.10;;;2.50;99.90;;;;;;5029390;28;20053;-84
2023/03/12 10:51:11;;;;;;;0.63;0.63;;;2.40;99.90;;;;;;5040850;28;20656;-84
2023/03/12 10:53:41;;;;;;;1.75;1.15;;;2.50;99.90;;;;;;5062029;28;20084;-84
2023/03/12 10:56:15;;;;;;;0.75;0.75;;;2.70;99.90;;;;;;5029430;28;20554;-84
2023/03/12 10:58:44;;;;;;;0.28;0.28;;;2.60;99.90;;;;;;5033878;28;20055;-84
2023/03/12 11:01:24;;;;;;;0.77;0.77;;;2.60;99.90;;;;;;5036115;28;20041;-84
2023/03/12 11:03:52;;;;;;;1.15;1.13;;;2.70;99.90;;;;;;5034648;28;20049;-84
2023/03/12 11:06:29;;;;;;;0.70;0.70;;;2.80;99.90;;;;;;5035516;28;20574;-84
2023/03/12 11:09:18;;;;;;;1.40;1.30;;;2.90;99.90;;;;;;5073163;28;20052;-83
2023/03/12 11:11:49;;;;;;;0.20;0.20;;;2.90;99.90;;;;;;5042712;28;20094;-84
2023/03/12 11:14:21;;;;;;;1.98;1.85;;;2.80;99.90;;;;;;5044171;28;20380;-84
2023/03/12 11:16:48;;;;;;;0.50;0.47;;;2.70;99.90;;;;;;5045998;28;20048;-85
2023/03/12 11:19:29;;;;;;;0.63;0.63;;;2.80;99.90;;;;;;5046757;28;20045;-84
2023/03/12 11:21:56;;;;;;;0.13;0.13;;;2.90;99.90;;;;;;5046639;28;20058;-84
2023/03/12 11:24:22;;;;;;;3.40;1.55;;;3.00;99.90;;;;;;5045524;28;20402;-84
2023/03/12 11:26:53;;;;;;;0.40;0.40;;;3.00;99.90;;;;;;5045809;28;20060;-84
2023/03/12 11:29:30;;;;;;;1.33;1.23;;;3.00;99.90;;;;;;5059471;28;20072;-84
2023/03/12 11:32:20;;;;;;;1.33;1.23;;;3.00;99.90;;;;;;5046656;28;20137;-83
2023/03/12 11:34:48;;;;;;;0.50;0.50;;;3.10;99.90;;;;;;5047240;28;20063;-84
2023/03/12 11:37:41;;;;;;;0.20;0.20;;;3.20;99.90;;;;;;5043863;28;20052;-83
2023/03/12 11:40:31;;;;;;;0.82;0.82;;;3.30;99.90;;;;;;5044133;28;20404;-84
2023/03/12 11:43:24;;;;;;;0.28;0.28;;;3.30;99.90;;;;;;5044630;28;20053;-84
2023/03/12 11:46:03;;;;;;;0.32;0.32;;;3.40;99.90;;;;;;5044314;28;20068;-84
2023/03/12 11:48:44;;;;;;;0.15;0.15;;;3.40;99.90;;;;;;5043856;28;20076;-84
2023/03/12 11:51:37;;;;;;;0.40;0.40;;;3.70;99.90;;;;;;5040617;28;20060;-84
2023/03/12 11:54:21;;;;;;;0.30;0.30;;;3.90;99.90;;;;;;5038603;28;20478;-84
2023/03/12 11:56:59;;;;;;;0.17;0.17;;;3.90;99.90;;;;;;5029093;28;20568;-84
2023/03/12 11:59:28;;;;;;;1.15;0.75;;;4.00;99.90;;;;;;5038886;28;20597;-84
2023/03/12 12:02:19;;;;;;;0.45;0.45;;;4.10;99.90;;;;;;5027384;28;20045;-84
2023/03/12 12:05:02;;;;;;;1.55;0.95;;;4.10;99.90;;;;;;5043955;28;20053;-84
2023/03/12 12:07:45;;;;;;;0.15;0.15;;;4.20;99.90;;;;;;5046029;28;20049;-84
2023/03/12 12:10:23;;;;;;;0.20;0.20;;;4.10;99.90;;;;;;5046628;28;20045;-84
2023/03/12 12:13:07;;;;;;;1.08;0.98;;;4.20;99.90;;;;;;5044384;28;20064;-84
2023/03/12 12:15:45;;;;;;;0.00;0.00;;;4.30;99.90;;;;;;5042173;28;20442;-84
2023/03/12 12:18:23;;;;;;;0.20;0.20;;;4.20;99.90;;;;;;5042920;28;20150;-84
2023/03/12 12:21:09;;;;;;;0.30;0.30;;;4.20;99.90;;;;;;5040586;28;20407;-84
2023/03/12 12:23:58;;;;;;;3.92;1.60;;;4.30;99.90;;;;;;5040256;28;20051;-84
2023/03/12 12:26:44;;;;;;;0.88;0.88;;;4.40;99.90;;;;;;5037339;28;20088;-84
2023/03/12 12:29:10;;;;;;;0.20;0.20;;;4.50;99.90;;;;;;5071445;28;20639;-84
2023/03/12 12:31:56;;;;;;;0.50;0.50;;;4.60;99.90;;;;;;5039071;28;20072;-84
2023/03/12 12:34:31;;;;;;;0.10;0.10;;;4.70;99.90;;;;;;5071993;28;20441;-85
2023/03/12 12:37:13;;;;;;;0.77;0.77;;;4.70;99.90;;;;;;5037677;28;20079;-84
2023/03/12 12:39:44;;;;;;;0.85;0.75;;;4.70;99.90;;;;;;5040465;28;20053;-84
2023/03/12 12:42:19;;;;;;;0.35;0.35;;;4.80;99.90;;;;;;5042492;28;20056;-85
2023/03/12 12:44:52;;;;;;;0.20;0.20;;;4.80;99.90;;;;;;5041211;28;20059;-85
2023/03/12 12:47:46;;;;;;;0.20;0.20;;;5.00;99.90;;;;;;5044056;28;20464;-85
2023/03/12 12:50:26;;;;;;;0.00;0.00;;;5.10;99.90;;;;;;5042708;28;20514;-85
2023/03/12 12:53:04;;;;;;;0.75;0.20;;;5.30;99.90;;;;;;5078084;28;20068;-85
2023/03/12 12:56:16;;;;;;;0.30;0.28;;;5.30;99.90;;;;;;5046145;28;20053;-85
2023/03/12 12:59:24;;;;;;;1.02;0.88;;;5.50;99.90;;;;;;5042629;28;20554;-85
2023/03/12 13:01:53;;;;;;;0.43;0.43;;;5.60;99.90;;;;;;5043040;28;20574;-84
2023/03/12 13:04:40;;;;;;;0.38;0.38;;;5.70;99.90;;;;;;5042662;28;20049;-85
2023/03/12 13:07:11;;;;;;;1.88;1.73;;;5.70;99.90;;;;;;5044377;28;20469;-85
2023/03/12 13:09:43;;;;;;;0.30;0.30;;;5.90;99.90;;;;;;5044504;28;20057;-85
2023/03/12 13:12:26;;;;;;;0.40;0.40;;;5.90;99.90;;;;;;5045582;28;20150;-85
2023/03/12 13:14:54;;;;;;;0.38;0.38;;;6.00;99.90;;;;;;5044321;28;20045;-85
2023/03/12 13:17:26;;;;;;;0.28;0.28;;;6.00;99.90;;;;;;5044099;28;20071;-85
2023/03/12 13:19:58;;;;;;;0.57;0.45;;;6.10;99.90;;;;;;5044087;28;20048;-85
2023/03/12 13:22:48;;;;;;;0.75;0.63;;;6.20;99.90;;;;;;5045517;28;20060;-85